createdAt,value
2023-03-25T00:01:34.015Z,14.70
2023-03-25T00:04:39.334Z,14.70
2023-03-25T00:07:42.496Z,14.60
2023-03-25T00:10:44.531Z,14.60
2023-03-25T00:13:48.266Z,14.60
2023-03-25T00:16:53.215Z,14.60
2023-03-25T00:19:55.940Z,14.60
2023-03-25T00:22:57.964Z,14.60
2023-03-25T00:26:00.593Z,14.60
2023-03-25T00:29:02.689Z,14.60
2023-03-25T00:32:04.931Z,14.70
2023-03-25T00:35:08.560Z,14.70
2023-03-25T00:38:38.235Z,14.70
2023-03-25T00:41:42.524Z,14.70
2023-03-25T00:44:44.540Z,14.70
2023-03-25T00:47:46.934Z,14.70
2023-03-25T00:50:49.036Z,14.70
2023-03-25T00:53:53.518Z,14.70
2023-03-25T00:56:56.853Z,14.60
2023-03-25T00:59:58.935Z,14.50
2023-03-25T01:03:04.394Z,14.60
2023-03-25T01:06:11.695Z,14.50
2023-03-25T01:09:15.358Z,14.50
2023-03-25T01:12:19.110Z,14.50
2023-03-25T01:15:21.461Z,14.40
2023-03-25T01:18:23.499Z,14.40
2023-03-25T01:21:25.583Z,14.50
2023-03-25T01:24:27.894Z,14.40
2023-03-25T01:27:30.821Z,14.40
2023-03-25T01:30:32.914Z,14.30
2023-03-25T01:33:35.265Z,14.30
2023-03-25T01:36:39.980Z,14.30
2023-03-25T01:39:44.229Z,14.30
2023-03-25T01:42:46.723Z,14.30
2023-03-25T01:45:49.216Z,14.30
2023-03-25T01:48:51.515Z,14.30
2023-03-25T01:52:04.961Z,14.30
2023-03-25T01:55:08.387Z,14.20
2023-03-25T01:58:15.527Z,14.20
2023-03-25T02:01:21.904Z,14.20
2023-03-25T02:04:39.355Z,14.20
2023-03-25T02:07:43.098Z,14.10
2023-03-25T02:10:47.129Z,14.00
2023-03-25T02:13:49.158Z,14.00
2023-03-25T02:17:18.840Z,14.00
2023-03-25T02:20:59.573Z,14.00
2023-03-25T02:24:35.455Z,14.00
2023-03-25T02:28:25.921Z,13.90
2023-03-25T02:31:55.388Z,13.90
2023-03-25T02:35:00.295Z,13.90
2023-03-25T02:38:27.790Z,13.80
2023-03-25T02:41:47.244Z,13.80
2023-03-25T02:44:58.253Z,13.80
2023-03-25T02:48:11.786Z,13.80
2023-03-25T02:51:21.436Z,13.80
2023-03-25T02:54:25.942Z,13.80
2023-03-25T02:57:31.115Z,13.70
2023-03-25T03:00:34.586Z,13.70
2023-03-25T03:03:37.210Z,13.70
2023-03-25T03:06:41.864Z,13.70
2023-03-25T03:09:50.710Z,13.60
2023-03-25T03:13:06.374Z,13.70
2023-03-25T03:16:17.631Z,13.70
2023-03-25T03:19:28.668Z,13.70
2023-03-25T03:22:52.859Z,13.60
2023-03-25T03:26:04.681Z,13.60
2023-03-25T03:29:32.293Z,13.60
2023-03-25T03:32:48.568Z,13.60
2023-03-25T03:36:02.365Z,13.50
2023-03-25T03:39:16.913Z,13.50
2023-03-25T03:42:34.173Z,13.50
2023-03-25T03:45:48.677Z,13.40
2023-03-25T03:48:57.467Z,13.50
2023-03-25T03:52:10.754Z,13.50
2023-03-25T03:55:29.333Z,13.50
2023-03-25T03:58:35.760Z,13.50
2023-03-25T04:01:46.446Z,13.40
2023-03-25T04:04:48.635Z,13.40
2023-03-25T04:08:03.910Z,13.40
2023-03-25T04:11:10.577Z,13.40
2023-03-25T04:14:14.207Z,13.40
2023-03-25T04:17:16.264Z,13.40
2023-03-25T04:20:29.853Z,13.30
2023-03-25T04:23:32.064Z,13.40
2023-03-25T04:26:37.960Z,13.30
2023-03-25T04:29:44.122Z,13.30
2023-03-25T04:32:47.538Z,13.30
2023-03-25T04:35:51.664Z,13.40
2023-03-25T04:38:53.929Z,13.30
2023-03-25T04:42:03.582Z,13.30
2023-03-25T04:45:07.638Z,13.30
2023-03-25T04:48:22.516Z,13.30
2023-03-25T04:51:24.506Z,13.20
2023-03-25T04:54:26.642Z,13.30
2023-03-25T04:57:28.679Z,13.20
2023-03-25T05:00:30.677Z,13.20
2023-03-25T05:03:33.781Z,13.20
2023-03-25T05:06:40.751Z,13.10
2023-03-25T05:09:42.806Z,13.10
2023-03-25T05:12:44.944Z,13.20
2023-03-25T05:16:10.075Z,13.20
2023-03-25T05:19:13.215Z,13.20
2023-03-25T05:22:20.425Z,13.20
2023-03-25T05:25:22.845Z,13.20
2023-03-25T05:28:24.863Z,13.10
2023-03-25T05:31:26.916Z,13.20
2023-03-25T05:34:30.049Z,13.10
2023-03-25T05:37:33.123Z,13.00
2023-03-25T05:40:36.302Z,13.10
2023-03-25T05:43:38.772Z,13.00
2023-03-25T05:46:41.040Z,13.00
2023-03-25T05:49:44.260Z,13.10
2023-03-25T05:52:49.587Z,13.10
2023-03-25T05:55:52.583Z,13.10
2023-03-25T05:58:54.907Z,13.10
2023-03-25T06:01:57.993Z,13.00
2023-03-25T06:05:02.838Z,13.00
2023-03-25T06:08:04.911Z,13.10
2023-03-25T06:11:09.304Z,12.90
2023-03-25T06:14:11.377Z,12.80
2023-03-25T06:17:19.153Z,12.90
2023-03-25T06:20:21.703Z,12.90
2023-03-25T06:23:25.051Z,12.90
2023-03-25T06:26:27.789Z,12.90
2023-03-25T06:29:29.894Z,13.00
2023-03-25T06:32:32.133Z,13.00
2023-03-25T06:35:34.174Z,13.00
2023-03-25T06:38:36.280Z,13.10
2023-03-25T06:41:38.452Z,13.10
2023-03-25T06:44:40.471Z,13.20
2023-03-25T06:47:42.651Z,13.30
2023-03-25T06:50:45.876Z,13.30
2023-03-25T06:53:47.959Z,13.40
2023-03-25T06:56:50.128Z,13.60
2023-03-25T06:59:52.190Z,13.70
2023-03-25T07:02:54.738Z,14.10
2023-03-25T07:05:56.922Z,14.60
2023-03-25T07:08:58.938Z,14.80
2023-03-25T07:12:01.877Z,15.00
2023-03-25T07:15:04.146Z,15.20
2023-03-25T07:18:06.252Z,15.70
2023-03-25T07:21:10.285Z,16.20
2023-03-25T07:24:12.523Z,16.90
2023-03-25T07:27:15.871Z,17.70
2023-03-25T07:30:17.981Z,18.30
2023-03-25T07:33:20.060Z,18.80
2023-03-25T07:36:23.768Z,19.10
2023-03-25T07:39:26.392Z,19.70
2023-03-25T07:42:28.460Z,20.50
2023-03-25T07:45:30.564Z,21.20
2023-03-25T07:48:45.931Z,21.70
2023-03-25T07:51:48.017Z,22.20
2023-03-25T07:54:50.435Z,22.60
2023-03-25T07:57:52.539Z,23.10
2023-03-25T08:00:58.157Z,23.50
2023-03-25T08:04:00.428Z,23.80
2023-03-25T08:07:02.721Z,23.90
2023-03-25T08:10:05.030Z,23.50
2023-03-25T08:13:07.145Z,24.10
2023-03-25T08:16:13.583Z,24.10
2023-03-25T08:19:15.740Z,24.70
2023-03-25T08:22:17.695Z,25.00
2023-03-25T08:25:19.687Z,25.60
2023-03-25T08:28:24.256Z,26.10
2023-03-25T08:31:31.197Z,26.90
2023-03-25T08:34:39.572Z,26.60
2023-03-25T08:37:41.565Z,27.20
2023-03-25T08:40:44.338Z,27.20
2023-03-25T08:43:47.670Z,27.20
2023-03-25T08:46:49.671Z,27.60
2023-03-25T08:49:51.781Z,28.40
2023-03-25T08:52:57.611Z,29.20
2023-03-25T08:56:00.268Z,29.20
2023-03-25T08:59:03.329Z,30.00
2023-03-25T09:02:05.995Z,30.30
2023-03-25T09:05:10.954Z,30.50
2023-03-25T09:08:13.566Z,30.00
2023-03-25T09:11:19.857Z,29.00
2023-03-25T09:14:31.292Z,29.90
2023-03-25T09:17:33.353Z,30.30
2023-03-25T09:20:35.674Z,29.80
2023-03-25T09:23:37.783Z,30.60
2023-03-25T09:26:40.063Z,31.30
2023-03-25T09:29:42.591Z,31.80
2023-03-25T09:32:45.276Z,31.10
2023-03-25T09:35:47.491Z,30.60
2023-03-25T09:38:49.841Z,30.00
2023-03-25T09:41:57.762Z,30.10
2023-03-25T09:45:11.830Z,30.20
2023-03-25T09:48:46.113Z,30.00
2023-03-25T09:51:51.336Z,29.80
2023-03-25T09:54:59.558Z,30.10
2023-03-25T09:58:20.986Z,30.90
2023-03-25T10:01:35.039Z,31.20
2023-03-25T10:05:07.699Z,30.40
2023-03-25T10:08:15.373Z,30.50
2023-03-25T10:11:36.101Z,30.60
2023-03-25T10:14:50.316Z,31.30
2023-03-25T10:18:05.452Z,31.60
2023-03-25T10:21:20.529Z,31.30
2023-03-25T10:25:06.106Z,31.80
2023-03-25T10:28:15.623Z,30.60
2023-03-25T10:31:22.206Z,31.20
2023-03-25T10:34:49.884Z,31.10
2023-03-25T10:38:13.968Z,30.90
2023-03-25T10:41:31.238Z,31.80
2023-03-25T10:44:33.425Z,32.30
2023-03-25T10:47:40.192Z,30.70
2023-03-25T10:50:43.488Z,30.90
2023-03-25T10:53:50.193Z,31.10
2023-03-25T10:56:55.452Z,31.10
2023-03-25T11:00:20.991Z,31.70
2023-03-25T11:03:32.164Z,31.90
2023-03-25T11:06:37.744Z,31.60
2023-03-25T11:09:40.932Z,31.80
2023-03-25T11:12:45.437Z,32.50
2023-03-25T11:15:47.881Z,31.80
2023-03-25T11:18:53.804Z,31.70
2023-03-25T11:22:02.926Z,31.40
2023-03-25T11:25:19.581Z,32.20
2023-03-25T11:28:36.212Z,32.70
2023-03-25T11:31:39.648Z,33.30
2023-03-25T11:34:42.424Z,32.00
2023-03-25T11:37:54.249Z,32.50
2023-03-25T11:41:00.116Z,32.30
2023-03-25T11:44:07.101Z,32.20
2023-03-25T11:47:11.909Z,31.90
2023-03-25T11:50:28.747Z,31.00
2023-03-25T11:53:33.382Z,30.40
2023-03-25T11:56:39.047Z,29.40
2023-03-25T11:59:46.417Z,28.30
2023-03-25T12:03:00.309Z,27.70
2023-03-25T12:06:23.979Z,26.70
2023-03-25T12:09:30.273Z,26.30
2023-03-25T12:12:43.371Z,26.00
2023-03-25T12:16:07.458Z,25.60
2023-03-25T12:19:39.874Z,25.20
2023-03-25T12:22:50.324Z,25.10
2023-03-25T12:26:34.830Z,24.80
2023-03-25T12:29:50.398Z,24.50
2023-03-25T12:33:18.222Z,24.20
2023-03-25T12:36:30.702Z,24.10
2023-03-25T12:40:05.529Z,23.70
2023-03-25T12:43:12.033Z,23.50
2023-03-25T12:46:34.365Z,23.40
2023-03-25T12:50:00.448Z,23.30
2023-03-25T12:53:26.663Z,23.20
2023-03-25T12:57:16.084Z,23.20
2023-03-25T13:00:33.004Z,23.20
2023-03-25T13:04:01.646Z,23.00
2023-03-25T13:07:17.856Z,22.90
2023-03-25T13:10:28.232Z,22.80
2023-03-25T13:13:34.318Z,22.70
2023-03-25T13:16:37.667Z,22.60
2023-03-25T13:19:43.939Z,22.60
2023-03-25T13:22:55.138Z,22.50
2023-03-25T13:26:03.637Z,22.50
2023-03-25T13:29:12.270Z,22.60
2023-03-25T13:32:58.264Z,22.50
2023-03-25T13:36:35.943Z,22.60
2023-03-25T13:40:01.246Z,22.40
2023-03-25T13:43:16.367Z,22.60
2023-03-25T13:46:44.113Z,22.60
2023-03-25T13:49:52.198Z,22.70
2023-03-25T13:53:03.708Z,22.70
2023-03-25T13:56:47.405Z,22.60
2023-03-25T14:00:23.044Z,22.70
2023-03-25T14:03:48.097Z,22.60
2023-03-25T14:07:21.386Z,22.70
2023-03-25T14:10:29.769Z,22.60
2023-03-25T14:13:37.978Z,22.60
2023-03-25T14:16:45.277Z,22.70
2023-03-25T14:19:55.378Z,22.60
2023-03-25T14:23:02.060Z,22.50
2023-03-25T14:26:08.509Z,22.60
2023-03-25T14:29:28.298Z,22.60
2023-03-25T14:32:33.546Z,22.70
2023-03-25T14:35:38.214Z,22.70
2023-03-25T14:38:54.601Z,22.70
2023-03-25T14:42:03.831Z,22.70
2023-03-25T14:45:42.452Z,22.60
2023-03-25T14:49:21.936Z,22.50
2023-03-25T14:52:45.340Z,22.60
2023-03-25T14:55:47.995Z,22.60
2023-03-25T14:58:57.361Z,22.30
2023-03-25T15:02:15.150Z,22.40
2023-03-25T15:05:28.807Z,22.30
2023-03-25T15:08:41.993Z,22.50
2023-03-25T15:12:05.156Z,22.40
2023-03-25T15:15:30.081Z,22.50
2023-03-25T15:18:32.216Z,22.40
2023-03-25T15:21:55.596Z,22.50
2023-03-25T15:25:00.344Z,22.50
2023-03-25T15:28:11.280Z,22.50
2023-03-25T15:31:40.934Z,22.60
2023-03-25T15:34:55.167Z,22.50
2023-03-25T15:37:57.261Z,22.50
2023-03-25T15:40:59.222Z,22.60
2023-03-25T15:44:23.008Z,22.50
2023-03-25T15:47:47.237Z,22.50
2023-03-25T15:50:50.010Z,22.40
2023-03-25T15:54:16.345Z,22.40
2023-03-25T15:57:32.048Z,22.40
2023-03-25T16:00:40.738Z,22.40
2023-03-25T16:03:44.950Z,22.40
2023-03-25T16:06:53.151Z,22.50
2023-03-25T16:09:55.689Z,22.40
2023-03-25T16:12:57.781Z,22.40
2023-03-25T16:15:59.970Z,22.40
2023-03-25T16:19:04.859Z,22.50
2023-03-25T16:22:32.933Z,22.40
2023-03-25T16:25:39.125Z,22.30
2023-03-25T16:28:46.506Z,22.30
2023-03-25T16:32:01.636Z,22.10
2023-03-25T16:35:06.093Z,21.90
2023-03-25T16:38:13.299Z,21.80
2023-03-25T16:41:15.865Z,21.70
2023-03-25T16:44:23.646Z,21.80
2023-03-25T16:47:26.956Z,21.90
2023-03-25T16:50:29.001Z,22.00
2023-03-25T16:53:35.283Z,22.00
2023-03-25T16:56:39.212Z,22.00
2023-03-25T16:59:42.161Z,21.90
2023-03-25T17:02:46.306Z,21.90
2023-03-25T17:06:01.414Z,21.70
2023-03-25T17:09:05.178Z,21.60
2023-03-25T17:12:27.533Z,21.40
2023-03-25T17:15:34.700Z,21.30
2023-03-25T17:18:39.232Z,21.20
2023-03-25T17:22:16.603Z,21.00
2023-03-25T17:25:32.476Z,20.90
2023-03-25T17:28:51.579Z,20.80
2023-03-25T17:31:58.593Z,20.80
2023-03-25T17:35:06.945Z,20.70
2023-03-25T17:38:18.176Z,20.70
2023-03-25T17:41:21.464Z,20.60
2023-03-25T17:44:23.589Z,20.40
2023-03-25T17:47:26.268Z,20.40
2023-03-25T17:50:33.244Z,20.30
2023-03-25T17:53:35.360Z,20.20
2023-03-25T17:56:38.726Z,20.20
2023-03-25T17:59:43.893Z,20.10
2023-03-25T18:02:46.860Z,20.00
2023-03-25T18:05:53.572Z,20.00
2023-03-25T18:08:55.653Z,19.90
2023-03-25T18:11:57.974Z,19.90
2023-03-25T18:14:59.979Z,19.80
2023-03-25T18:18:02.355Z,19.80
2023-03-25T18:21:04.901Z,19.80
2023-03-25T18:24:07.709Z,19.70
2023-03-25T18:27:14.637Z,19.70
2023-03-25T18:30:29.936Z,19.70
2023-03-25T18:33:34.791Z,19.70
2023-03-25T18:36:37.638Z,19.60
2023-03-25T18:39:39.868Z,19.50
2023-03-25T18:42:42.532Z,19.40
2023-03-25T18:45:46.974Z,19.30
2023-03-25T18:48:49.135Z,19.20
2023-03-25T18:51:51.477Z,19.20
2023-03-25T18:54:53.527Z,19.10
2023-03-25T18:57:56.328Z,19.00
2023-03-25T19:00:59.489Z,18.90
2023-03-25T19:04:02.542Z,18.80
2023-03-25T19:07:04.815Z,18.70
2023-03-25T19:10:11.870Z,18.70
2023-03-25T19:13:14.625Z,18.70
2023-03-25T19:16:16.916Z,18.60
2023-03-25T19:19:19.062Z,18.50
2023-03-25T19:22:21.228Z,18.50
2023-03-25T19:25:23.253Z,18.40
2023-03-25T19:28:26.670Z,18.30
2023-03-25T19:31:29.788Z,18.30
2023-03-25T19:34:32.125Z,18.30
2023-03-25T19:37:35.463Z,18.30
2023-03-25T19:40:38.422Z,18.20
2023-03-25T19:43:41.173Z,18.20
2023-03-25T19:46:43.512Z,18.10
2023-03-25T19:49:46.380Z,18.10
2023-03-25T19:52:50.983Z,18.10
2023-03-25T19:55:53.956Z,18.00
2023-03-25T19:58:56.785Z,18.00
2023-03-25T20:02:08.584Z,18.00
2023-03-25T20:05:25.605Z,17.90
2023-03-25T20:08:41.528Z,17.90
2023-03-25T20:11:44.856Z,17.80
2023-03-25T20:14:46.890Z,17.80
2023-03-25T20:17:53.360Z,17.80
2023-03-25T20:20:55.752Z,17.80
2023-03-25T20:23:58.065Z,17.80
2023-03-25T20:27:01.323Z,17.70
2023-03-25T20:30:08.734Z,17.70
2023-03-25T20:33:11.244Z,17.60
2023-03-25T20:36:13.478Z,17.50
2023-03-25T20:39:15.717Z,17.50
2023-03-25T20:42:19.275Z,17.40
2023-03-25T20:45:21.718Z,17.40
2023-03-25T20:48:25.742Z,17.50
2023-03-25T20:51:28.452Z,17.40
2023-03-25T20:54:31.644Z,17.40
2023-03-25T20:57:34.228Z,17.30
2023-03-25T21:00:36.788Z,17.30
2023-03-25T21:03:40.767Z,17.30
2023-03-25T21:06:43.365Z,17.20
2023-03-25T21:09:47.853Z,17.20
2023-03-25T21:12:50.219Z,17.20
2023-03-25T21:15:55.028Z,17.20
2023-03-25T21:19:01.858Z,17.10
2023-03-25T21:22:04.396Z,17.10
2023-03-25T21:25:06.849Z,17.10
2023-03-25T21:28:09.465Z,17.00
2023-03-25T21:31:17.208Z,17.00
2023-03-25T21:34:20.183Z,17.10
2023-03-25T21:37:22.258Z,17.00
2023-03-25T21:40:27.320Z,17.00
2023-03-25T21:43:42.653Z,16.90
2023-03-25T21:46:44.681Z,16.90
2023-03-25T21:49:46.776Z,16.90
2023-03-25T21:52:48.816Z,16.90
2023-03-25T21:55:55.493Z,16.80
2023-03-25T21:58:58.377Z,16.80
2023-03-25T22:02:00.449Z,16.70
2023-03-25T22:05:03.889Z,16.70
2023-03-25T22:08:06.908Z,16.70
2023-03-25T22:11:14.300Z,16.60
2023-03-25T22:14:19.639Z,16.60
2023-03-25T22:17:21.973Z,16.60
2023-03-25T22:20:24.186Z,16.60
2023-03-25T22:23:26.189Z,16.50
2023-03-25T22:26:30.305Z,16.60
2023-03-25T22:29:35.230Z,16.60
2023-03-25T22:32:37.482Z,16.50
2023-03-25T22:35:41.101Z,16.50
2023-03-25T22:38:46.629Z,16.50
2023-03-25T22:41:48.725Z,16.50
2023-03-25T22:44:50.861Z,16.50
2023-03-25T22:47:54.150Z,16.50
2023-03-25T22:50:57.017Z,16.50
2023-03-25T22:53:59.026Z,16.40
2023-03-25T22:57:03.488Z,16.40
2023-03-25T23:00:14.404Z,16.40
2023-03-25T23:03:16.730Z,16.40
2023-03-25T23:06:19.035Z,16.30
2023-03-25T23:09:41.078Z,16.30
2023-03-25T23:12:43.157Z,16.30
2023-03-25T23:15:46.270Z,16.30
2023-03-25T23:18:48.629Z,16.30
2023-03-25T23:21:50.674Z,16.30
2023-03-25T23:24:52.768Z,16.30
2023-03-25T23:27:58.144Z,16.30
2023-03-25T23:31:02.613Z,16.30
2023-03-25T23:34:06.539Z,16.30
2023-03-25T23:37:09.372Z,16.20
2023-03-25T23:40:12.694Z,16.30
2023-03-25T23:43:16.503Z,16.20
2023-03-25T23:46:21.427Z,16.20
2023-03-25T23:49:23.494Z,16.10
2023-03-25T23:52:25.614Z,16.20
2023-03-25T23:55:27.875Z,16.20
2023-03-25T23:58:32.415Z,16.20
